createdAt,value
2018-11-29T00:00:49.565Z,3.50
2018-11-29T00:03:18.008Z,3.50
2018-11-29T00:05:46.318Z,3.40
2018-11-29T00:08:14.634Z,3.40
2018-11-29T00:10:42.943Z,3.60
2018-11-29T00:13:11.241Z,3.50
2018-11-29T00:15:39.534Z,3.60
2018-11-29T00:18:07.951Z,3.60
2018-11-29T00:20:36.246Z,3.50
2018-11-29T00:23:04.592Z,3.50
2018-11-29T00:25:32.898Z,3.50
2018-11-29T00:28:01.182Z,3.50
2018-11-29T00:30:29.510Z,3.50
2018-11-29T00:32:57.802Z,3.50
2018-11-29T00:35:26.114Z,3.50
2018-11-29T00:37:54.423Z,3.50
2018-11-29T00:40:23.459Z,3.40
2018-11-29T00:42:51.995Z,3.40
2018-11-29T00:45:21.407Z,3.40
2018-11-29T00:47:49.946Z,3.50
2018-11-29T00:50:18.907Z,3.40
2018-11-29T00:52:48.100Z,3.40
2018-11-29T00:55:19.258Z,3.30
2018-11-29T00:57:47.586Z,3.40
2018-11-29T01:00:19.769Z,3.40
2018-11-29T01:02:48.071Z,3.40
2018-11-29T01:05:16.407Z,3.30
2018-11-29T01:07:44.731Z,3.40
2018-11-29T01:10:13.975Z,3.40
2018-11-29T01:12:42.434Z,3.40
2018-11-29T01:15:12.954Z,3.50
2018-11-29T01:17:41.282Z,3.50
2018-11-29T01:20:12.027Z,3.50
2018-11-29T01:22:40.355Z,3.40
2018-11-29T01:25:11.491Z,3.40
2018-11-29T01:27:39.954Z,3.40
2018-11-29T01:30:11.995Z,3.40
2018-11-29T01:32:40.305Z,3.40
2018-11-29T01:35:10.774Z,3.50
2018-11-29T01:37:39.094Z,3.40
2018-11-29T01:40:17.986Z,3.40
2018-11-29T01:42:51.528Z,3.40
2018-11-29T01:45:19.842Z,3.40
2018-11-29T01:47:48.127Z,3.30
2018-11-29T01:50:16.529Z,3.30
2018-11-29T01:52:44.809Z,3.30
2018-11-29T01:55:13.148Z,3.30
2018-11-29T01:57:41.442Z,3.40
2018-11-29T02:00:13.786Z,3.40
2018-11-29T02:02:42.151Z,3.40
2018-11-29T02:05:10.919Z,3.40
2018-11-29T02:07:39.967Z,3.50
2018-11-29T02:10:16.691Z,3.50
2018-11-29T02:12:44.985Z,3.70
2018-11-29T02:15:13.348Z,3.80
2018-11-29T02:17:41.660Z,3.80
2018-11-29T02:20:11.879Z,4.00
2018-11-29T02:22:40.234Z,3.90
2018-11-29T02:25:08.546Z,4.10
2018-11-29T02:27:37.201Z,4.20
2018-11-29T02:30:10.725Z,4.20
2018-11-29T02:32:39.065Z,4.10
2018-11-29T02:35:07.651Z,4.20
2018-11-29T02:37:35.945Z,4.30
2018-11-29T02:40:04.934Z,4.40
2018-11-29T02:42:33.234Z,4.40
2018-11-29T02:45:01.576Z,4.60
2018-11-29T02:47:29.857Z,4.60
2018-11-29T02:49:58.180Z,4.70
2018-11-29T02:52:26.468Z,4.70
2018-11-29T02:54:54.777Z,4.70
2018-11-29T02:57:23.051Z,4.70
2018-11-29T02:59:51.349Z,4.70
2018-11-29T03:02:19.633Z,4.40
2018-11-29T03:04:47.938Z,4.30
2018-11-29T03:07:16.218Z,4.50
2018-11-29T03:09:44.530Z,4.50
2018-11-29T03:12:12.822Z,4.50
2018-11-29T03:14:41.116Z,4.50
2018-11-29T03:17:09.402Z,4.60
2018-11-29T03:19:37.711Z,4.60
2018-11-29T03:22:06.323Z,4.60
2018-11-29T03:24:34.621Z,4.10
2018-11-29T03:27:02.927Z,4.30
2018-11-29T03:29:31.300Z,4.20
2018-11-29T03:31:59.587Z,4.30
2018-11-29T03:34:28.934Z,4.00
2018-11-29T03:36:57.241Z,4.00
2018-11-29T03:39:25.534Z,4.10
2018-11-29T03:41:53.818Z,4.00
2018-11-29T03:44:22.150Z,4.10
2018-11-29T03:46:50.442Z,3.90
2018-11-29T03:49:18.733Z,3.70
2018-11-29T03:51:47.058Z,3.70
2018-11-29T03:54:15.352Z,3.60
2018-11-29T03:56:43.626Z,3.50
2018-11-29T03:59:11.925Z,3.60
2018-11-29T04:01:40.208Z,3.60
2018-11-29T04:04:08.533Z,3.50
2018-11-29T04:06:36.844Z,3.50
2018-11-29T04:09:10.398Z,3.50
2018-11-29T04:11:38.716Z,3.50
2018-11-29T04:14:07.054Z,3.40
2018-11-29T04:16:35.379Z,3.40
2018-11-29T04:19:03.837Z,3.50
2018-11-29T04:21:32.141Z,3.50
2018-11-29T04:24:00.466Z,3.50
2018-11-29T04:26:28.771Z,3.60
2018-11-29T04:28:57.053Z,3.60
2018-11-29T04:31:25.390Z,3.70
2018-11-29T04:33:53.695Z,3.80
2018-11-29T04:36:22.063Z,4.00
2018-11-29T04:38:50.353Z,4.10
2018-11-29T04:41:18.664Z,4.20
2018-11-29T04:43:46.946Z,4.30
2018-11-29T04:46:47.754Z,4.20
2018-11-29T04:49:16.127Z,4.40
2018-11-29T04:51:44.512Z,4.40
2018-11-29T04:54:12.818Z,4.50
2018-11-29T04:56:41.157Z,4.70
2018-11-29T04:59:09.497Z,4.80
2018-11-29T05:01:38.099Z,4.80
2018-11-29T05:04:06.889Z,4.50
2018-11-29T05:06:35.216Z,4.40
2018-11-29T05:09:05.095Z,4.10
2018-11-29T05:11:33.414Z,4.10
2018-11-29T05:14:01.697Z,4.00
2018-11-29T05:16:30.009Z,4.00
2018-11-29T05:18:58.651Z,4.10
2018-11-29T05:21:26.965Z,4.00
2018-11-29T05:23:55.669Z,4.10
2018-11-29T05:26:24.005Z,4.20
2018-11-29T05:28:52.323Z,4.00
2018-11-29T05:31:20.642Z,4.00
2018-11-29T05:33:48.944Z,4.00
2018-11-29T05:36:17.246Z,4.20
2018-11-29T05:38:45.549Z,3.90
2018-11-29T05:41:13.903Z,4.10
2018-11-29T05:43:42.211Z,4.20
2018-11-29T05:46:10.574Z,4.00
2018-11-29T05:48:38.889Z,4.00
2018-11-29T05:51:07.235Z,4.10
2018-11-29T05:53:35.553Z,3.90
2018-11-29T05:56:03.917Z,3.80
2018-11-29T05:58:32.238Z,3.90
2018-11-29T06:01:25.162Z,4.00
2018-11-29T06:03:56.749Z,4.10
2018-11-29T06:06:36.797Z,4.20
2018-11-29T06:09:09.190Z,4.30
2018-11-29T06:11:50.698Z,4.30
2018-11-29T06:14:19.008Z,4.40
2018-11-29T06:16:47.334Z,4.40
2018-11-29T06:19:15.653Z,4.50
2018-11-29T06:21:44.013Z,4.50
2018-11-29T06:24:13.672Z,4.50
2018-11-29T06:26:40.758Z,4.30
2018-11-29T06:29:09.134Z,4.30
2018-11-29T06:31:37.493Z,4.20
2018-11-29T06:34:06.654Z,4.30
2018-11-29T06:36:34.990Z,4.40
2018-11-29T06:39:03.513Z,4.60
2018-11-29T06:41:31.883Z,4.60
2018-11-29T06:44:00.258Z,4.50
2018-11-29T06:46:28.634Z,4.60
2018-11-29T06:48:56.928Z,4.60
2018-11-29T06:51:25.273Z,4.60
2018-11-29T06:53:58.965Z,4.70
2018-11-29T06:56:27.814Z,4.70
2018-11-29T06:58:56.177Z,4.80
2018-11-29T07:01:24.526Z,4.70
2018-11-29T07:03:52.838Z,4.40
2018-11-29T07:06:21.148Z,4.30
2018-11-29T07:08:49.509Z,4.00
2018-11-29T07:11:17.882Z,4.00
2018-11-29T07:13:46.184Z,4.10
2018-11-29T07:16:14.663Z,4.10
2018-11-29T07:18:42.954Z,4.10
2018-11-29T07:21:22.769Z,4.20
2018-11-29T07:23:51.094Z,4.20
2018-11-29T07:26:19.426Z,3.90
2018-11-29T07:28:47.729Z,3.60
2018-11-29T07:31:16.037Z,3.70
2018-11-29T07:33:44.415Z,3.60
2018-11-29T07:36:12.749Z,3.40
2018-11-29T07:38:41.167Z,3.50
2018-11-29T07:41:09.471Z,3.40
2018-11-29T07:43:37.817Z,3.30
2018-11-29T07:46:06.398Z,3.30
2018-11-29T07:48:34.785Z,3.40
2018-11-29T07:51:03.121Z,3.30
2018-11-29T07:53:31.439Z,3.40
2018-11-29T07:55:59.766Z,3.20
2018-11-29T07:58:28.090Z,3.40
2018-11-29T08:00:56.409Z,3.70
2018-11-29T08:03:24.734Z,3.50
2018-11-29T08:05:53.102Z,3.60
2018-11-29T08:08:21.430Z,3.70
2018-11-29T08:10:49.749Z,3.90
2018-11-29T08:13:18.097Z,3.80
2018-11-29T08:15:46.417Z,3.80
2018-11-29T08:18:14.741Z,3.70
2018-11-29T08:20:43.033Z,3.80
2018-11-29T08:23:11.368Z,4.00
2018-11-29T08:25:39.693Z,4.00
2018-11-29T08:28:08.022Z,4.10
2018-11-29T08:30:36.345Z,3.90
2018-11-29T08:33:04.701Z,3.90
2018-11-29T08:35:33.009Z,3.70
2018-11-29T08:38:01.323Z,3.80
2018-11-29T08:40:29.627Z,3.70
2018-11-29T08:42:57.976Z,3.60
2018-11-29T08:45:26.280Z,3.60
2018-11-29T08:47:54.613Z,3.90
2018-11-29T08:50:22.927Z,4.00
2018-11-29T08:52:51.274Z,4.20
2018-11-29T08:55:21.105Z,4.10
2018-11-29T08:57:49.713Z,4.10
2018-11-29T09:00:20.190Z,4.00
2018-11-29T09:02:48.566Z,4.30
2018-11-29T09:05:16.914Z,4.30
2018-11-29T09:07:46.221Z,4.30
2018-11-29T09:10:16.562Z,4.30
2018-11-29T09:12:44.866Z,4.00
2018-11-29T09:15:14.089Z,4.20
2018-11-29T09:17:42.566Z,4.20
2018-11-29T09:20:13.077Z,4.10
2018-11-29T09:22:41.559Z,4.10
2018-11-29T09:25:12.097Z,4.00
2018-11-29T09:27:40.461Z,4.00
2018-11-29T09:30:13.989Z,4.10
2018-11-29T09:32:42.934Z,4.10
2018-11-29T09:35:11.297Z,4.10
2018-11-29T09:37:39.998Z,4.20
2018-11-29T09:40:12.810Z,4.30
2018-11-29T09:42:41.200Z,4.40
2018-11-29T09:45:12.036Z,4.50
2018-11-29T09:47:41.063Z,4.50
2018-11-29T09:50:10.795Z,4.60
2018-11-29T09:52:39.513Z,4.50
2018-11-29T09:55:09.001Z,4.70
2018-11-29T09:57:37.949Z,4.80
2018-11-29T10:00:13.538Z,4.90
2018-11-29T10:02:42.729Z,4.70
2018-11-29T10:05:11.813Z,4.70
2018-11-29T10:07:40.153Z,4.90
2018-11-29T10:10:10.129Z,5.10
2018-11-29T10:12:38.909Z,5.30
2018-11-29T10:15:09.354Z,5.40
2018-11-29T10:17:37.706Z,5.50
2018-11-29T10:20:11.776Z,5.50
2018-11-29T10:22:41.050Z,5.40
2018-11-29T10:25:10.953Z,5.20
2018-11-29T10:27:39.341Z,5.40
2018-11-29T10:30:15.422Z,5.30
2018-11-29T10:32:43.749Z,5.20
2018-11-29T10:35:12.066Z,5.60
2018-11-29T10:37:40.371Z,5.70
2018-11-29T10:40:09.856Z,5.80
2018-11-29T10:42:38.157Z,5.60
2018-11-29T10:45:10.640Z,5.50
2018-11-29T10:47:39.038Z,5.60
2018-11-29T10:50:12.219Z,5.80
2018-11-29T10:52:40.629Z,6.00
2018-11-29T10:55:16.111Z,6.00
2018-11-29T10:57:44.446Z,6.10
2018-11-29T11:00:23.469Z,6.10
2018-11-29T11:02:57.686Z,6.20
2018-11-29T11:05:26.015Z,6.00
2018-11-29T11:07:54.338Z,5.80
2018-11-29T11:10:22.653Z,5.90
2018-11-29T11:12:50.968Z,5.90
2018-11-29T11:15:19.338Z,6.00
2018-11-29T11:17:47.633Z,6.00
2018-11-29T11:20:15.959Z,5.60
2018-11-29T11:22:44.266Z,5.80
2018-11-29T11:25:12.841Z,6.00
2018-11-29T11:27:41.197Z,5.90
2018-11-29T11:30:13.647Z,5.90
2018-11-29T11:32:42.366Z,5.80
2018-11-29T11:35:10.949Z,5.90
2018-11-29T11:37:39.249Z,6.10
2018-11-29T11:40:09.674Z,5.90
2018-11-29T11:42:38.126Z,5.90
2018-11-29T11:45:11.399Z,6.10
2018-11-29T11:47:39.767Z,5.90
2018-11-29T11:50:12.278Z,6.00
2018-11-29T11:52:40.610Z,5.90
2018-11-29T11:55:10.326Z,5.70
2018-11-29T11:57:38.739Z,5.80
2018-11-29T12:00:14.346Z,5.90
2018-11-29T12:02:43.277Z,5.90
2018-11-29T12:05:12.021Z,6.00
2018-11-29T12:07:40.422Z,6.20
2018-11-29T12:10:13.394Z,6.20
2018-11-29T12:12:41.727Z,6.10
2018-11-29T12:15:11.246Z,6.00
2018-11-29T12:17:39.769Z,5.80
2018-11-29T12:20:13.321Z,6.00
2018-11-29T12:22:41.638Z,6.10
2018-11-29T12:25:13.019Z,5.90
2018-11-29T12:27:41.264Z,5.90
2018-11-29T12:30:18.694Z,6.00
2018-11-29T12:32:47.056Z,5.80
2018-11-29T12:35:15.548Z,5.80
2018-11-29T12:37:43.845Z,5.70
2018-11-29T12:40:14.361Z,5.60
2018-11-29T12:42:42.751Z,5.60
2018-11-29T12:45:13.102Z,5.60
2018-11-29T12:47:41.557Z,5.80
2018-11-29T12:50:11.784Z,5.70
2018-11-29T12:52:40.141Z,5.60
2018-11-29T12:55:09.477Z,5.70
2018-11-29T12:57:37.805Z,5.80
2018-11-29T13:00:12.793Z,5.60
2018-11-29T13:02:48.199Z,5.60
2018-11-29T13:05:16.610Z,5.70
2018-11-29T13:07:45.014Z,5.70
2018-11-29T13:10:15.419Z,5.60
2018-11-29T13:12:43.755Z,5.50
2018-11-29T13:15:16.436Z,5.60
2018-11-29T13:17:44.746Z,5.50
2018-11-29T13:20:16.415Z,5.60
2018-11-29T13:22:44.733Z,5.70
2018-11-29T13:25:14.808Z,5.50
2018-11-29T13:27:43.258Z,5.50
2018-11-29T13:30:15.191Z,5.50
2018-11-29T13:32:43.742Z,5.60
2018-11-29T13:35:17.647Z,5.60
2018-11-29T13:37:48.716Z,5.70
2018-11-29T13:42:48.402Z,5.60
2018-11-29T13:45:17.007Z,5.60
2018-11-29T13:47:45.899Z,5.70
2018-11-29T13:50:15.515Z,5.70
2018-11-29T13:52:45.180Z,5.80
2018-11-29T13:55:14.786Z,5.70
2018-11-29T13:57:47.269Z,5.70
2018-11-29T14:03:04.387Z,5.60
2018-11-29T14:05:38.986Z,5.60
2018-11-29T14:08:08.866Z,5.90
2018-11-29T14:10:38.210Z,6.00
2018-11-29T14:13:08.762Z,6.10
2018-11-29T14:15:37.795Z,6.10
2018-11-29T14:18:06.577Z,6.00
2018-11-29T14:20:35.532Z,6.20
2018-11-29T14:23:03.390Z,6.10
2018-11-29T14:25:31.701Z,5.90
2018-11-29T14:28:00.021Z,6.10
2018-11-29T14:30:29.410Z,6.20
2018-11-29T14:33:00.639Z,6.20
2018-11-29T14:35:29.039Z,6.30
2018-11-29T14:37:57.360Z,6.20
2018-11-29T14:40:27.571Z,6.00
2018-11-29T14:42:55.897Z,5.80
2018-11-29T14:45:25.223Z,5.60
2018-11-29T14:47:53.705Z,5.50
2018-11-29T14:50:25.393Z,5.50
2018-11-29T14:52:54.577Z,5.60
2018-11-29T14:55:22.898Z,5.50
2018-11-29T14:57:51.245Z,5.50
2018-11-29T15:00:19.601Z,5.60
2018-11-29T15:02:49.020Z,5.70
2018-11-29T15:05:31.686Z,5.70
2018-11-29T15:08:00.050Z,5.60
2018-11-29T15:10:28.434Z,5.60
2018-11-29T15:12:56.791Z,5.70
2018-11-29T15:15:25.218Z,5.60
2018-11-29T15:17:54.261Z,5.60
2018-11-29T15:20:25.888Z,5.70
2018-11-29T15:22:54.272Z,5.90
2018-11-29T15:25:22.611Z,6.10
2018-11-29T15:27:50.929Z,6.30
2018-11-29T15:30:20.946Z,6.30
2018-11-29T15:32:49.333Z,6.30
2018-11-29T15:35:17.734Z,6.30
2018-11-29T15:37:46.232Z,6.20
2018-11-29T15:40:16.350Z,6.10
2018-11-29T15:42:44.781Z,5.90
2018-11-29T15:45:28.527Z,6.00
2018-11-29T15:47:56.957Z,6.10
2018-11-29T15:50:25.749Z,6.00
2018-11-29T15:52:56.969Z,5.90
2018-11-29T15:55:25.321Z,5.80
2018-11-29T15:57:54.564Z,5.70
2018-11-29T16:00:26.234Z,5.70
2018-11-29T16:02:56.656Z,5.60
2018-11-29T16:05:25.438Z,5.70
2018-11-29T16:07:54.900Z,5.60
2018-11-29T16:10:25.348Z,5.50
2018-11-29T16:12:57.430Z,5.50
2018-11-29T16:15:25.805Z,5.70
2018-11-29T16:20:35.337Z,5.70
2018-11-29T16:23:08.343Z,5.60
2018-11-29T16:28:25.593Z,5.60
2018-11-29T16:30:57.614Z,5.60
2018-11-29T16:33:35.179Z,5.70
2018-11-29T16:36:03.826Z,5.70
2018-11-29T16:38:32.410Z,5.60
2018-11-29T16:41:00.941Z,5.60
2018-11-29T16:43:29.298Z,5.50
2018-11-29T16:45:57.699Z,5.50
2018-11-29T16:48:26.180Z,5.60
2018-11-29T16:50:54.557Z,5.70
2018-11-29T16:53:22.955Z,5.70
2018-11-29T16:55:51.374Z,5.70
2018-11-29T16:58:22.499Z,5.70
2018-11-29T17:00:51.576Z,5.70
2018-11-29T17:03:20.447Z,5.80
2018-11-29T17:05:49.378Z,5.80
2018-11-29T17:08:18.358Z,5.80
2018-11-29T17:10:47.601Z,6.00
2018-11-29T17:13:18.108Z,6.10
2018-11-29T17:15:47.848Z,6.20
2018-11-29T17:25:12.405Z,6.40
2018-11-29T17:27:47.143Z,6.30
2018-11-29T17:30:22.369Z,6.30
2018-11-29T17:35:06.329Z,6.30
2018-11-29T17:40:50.135Z,6.10
2018-11-29T17:43:31.715Z,6.20
2018-11-29T18:10:59.964Z,6.30
2018-11-29T18:13:38.094Z,5.90
2018-11-29T18:16:07.087Z,5.90
2018-11-29T18:18:35.823Z,5.90
2018-11-29T18:21:04.402Z,5.90
2018-11-29T18:23:32.869Z,5.80
2018-11-29T18:26:01.329Z,5.90
2018-11-29T18:28:30.744Z,5.90
2018-11-29T18:33:52.657Z,6.10
2018-11-29T19:03:36.150Z,5.90
2018-11-29T19:24:38.180Z,5.60
2018-11-29T19:30:04.203Z,5.60
2018-11-29T19:35:36.922Z,5.50
2018-11-29T20:24:07.459Z,5.00
2018-11-29T20:26:37.138Z,4.70
2018-11-29T20:29:16.385Z,4.70
2018-11-29T20:31:45.157Z,4.70
2018-11-29T20:34:29.674Z,4.80
2018-11-29T20:50:19.308Z,5.20
2018-11-29T20:52:52.225Z,4.80
2018-11-29T20:58:05.346Z,5.10
2018-11-29T21:00:33.810Z,5.20
2018-11-29T21:03:02.461Z,5.20
2018-11-29T21:05:32.474Z,5.20
2018-11-29T21:10:44.560Z,5.10
2018-11-29T21:16:11.316Z,5.20
2018-11-29T21:24:37.734Z,4.60
2018-11-29T21:27:06.454Z,4.70
2018-11-29T21:29:35.073Z,4.80
2018-11-29T21:32:12.868Z,4.80
2018-11-29T21:34:48.254Z,5.00
2018-11-29T21:37:16.731Z,5.00
2018-11-29T21:39:45.208Z,4.80
2018-11-29T21:42:14.189Z,4.90
2018-11-29T21:44:45.789Z,4.90
2018-11-29T22:42:35.807Z,5.10
2018-11-29T22:45:05.406Z,5.10
2018-11-29T22:47:44.365Z,5.00
2018-11-29T23:01:46.406Z,4.70
2018-11-29T23:05:04.179Z,4.70
2018-11-29T23:10:13.908Z,4.90
2018-11-29T23:12:43.016Z,4.90
2018-11-29T23:15:12.551Z,4.80
2018-11-29T23:20:39.693Z,4.70
2018-11-29T23:23:08.691Z,4.80
2018-11-29T23:25:37.575Z,4.80
2018-11-29T23:28:07.758Z,5.00
2018-11-29T23:30:37.350Z,5.00
2018-11-29T23:33:17.252Z,5.00
2018-11-29T23:38:37.629Z,5.20
2018-11-29T23:41:07.150Z,5.20
2018-11-29T23:46:47.228Z,5.20
2018-11-29T23:52:24.364Z,5.40
